createdAt,value
2017-12-25T07:25:09.369Z,1.48
2017-12-25T07:27:36.968Z,1.50
2017-12-25T07:30:04.559Z,1.60
2017-12-25T07:32:32.392Z,1.50
2017-12-25T07:34:59.988Z,1.77
2017-12-25T07:37:27.585Z,1.50
2017-12-25T07:39:55.945Z,1.50
2017-12-25T07:42:23.529Z,2.20
2017-12-25T07:44:51.875Z,1.98
2017-12-25T07:47:19.468Z,1.75
2017-12-25T07:49:47.883Z,2.05
2017-12-25T07:52:15.473Z,1.42
2017-12-25T07:54:43.057Z,1.50
2017-12-25T07:57:11.420Z,1.55
2017-12-25T07:59:39.016Z,1.90
2017-12-25T08:02:06.604Z,1.70
2017-12-25T08:04:34.228Z,1.75
2017-12-25T08:07:01.813Z,2.35
2017-12-25T08:09:29.444Z,2.58
2017-12-25T08:11:57.892Z,1.70
2017-12-25T08:14:25.524Z,1.80
2017-12-25T08:16:53.225Z,1.80
2017-12-25T08:19:20.876Z,4.82
2017-12-25T08:21:48.548Z,2.75
2017-12-25T08:24:16.457Z,3.47
2017-12-25T08:26:44.059Z,7.07
2017-12-25T08:29:11.644Z,7.55
2017-12-25T08:31:39.236Z,7.40
2017-12-25T08:34:07.072Z,2.97
2017-12-25T08:36:35.432Z,7.22
2017-12-25T08:39:03.056Z,13.80
2017-12-25T08:41:30.654Z,7.87
2017-12-25T08:43:58.244Z,4.10
2017-12-25T08:46:25.879Z,2.95
2017-12-25T08:49:00.896Z,2.70
2017-12-25T08:51:28.502Z,2.45
2017-12-25T08:53:56.132Z,2.80
2017-12-25T08:56:24.505Z,3.10
2017-12-25T08:58:52.089Z,2.97
2017-12-25T09:01:19.745Z,3.97
2017-12-25T09:03:47.344Z,3.83
2017-12-25T09:06:14.939Z,4.45
2017-12-25T09:08:42.572Z,4.20
2017-12-25T09:11:10.169Z,2.85
2017-12-25T09:13:38.527Z,3.42
2017-12-25T09:16:07.116Z,3.67
2017-12-25T09:18:34.723Z,4.60
2017-12-25T09:21:02.308Z,3.65
2017-12-25T09:23:29.905Z,4.20
2017-12-25T09:25:58.368Z,3.35
2017-12-25T09:28:25.956Z,3.80
2017-12-25T09:30:54.423Z,3.85
2017-12-25T09:33:23.676Z,3.35
2017-12-25T09:35:51.271Z,3.80
2017-12-25T09:38:18.857Z,3.40
2017-12-25T09:40:47.297Z,4.00
2017-12-25T09:43:14.879Z,4.20
2017-12-25T09:45:46.789Z,4.00
2017-12-25T09:48:19.508Z,3.15
2017-12-25T09:50:47.100Z,3.60
2017-12-25T09:53:14.700Z,4.97
2017-12-25T09:55:42.285Z,5.90
2017-12-25T09:58:10.206Z,5.65
2017-12-25T10:00:37.800Z,6.05
2017-12-25T10:03:05.437Z,5.90
2017-12-25T10:05:33.024Z,6.00
2017-12-25T10:08:00.632Z,5.18
2017-12-25T10:10:28.224Z,5.75
2017-12-25T10:12:55.803Z,5.53
2017-12-25T10:15:23.392Z,4.90
2017-12-25T10:17:51.981Z,6.18
2017-12-25T10:20:19.632Z,4.97
2017-12-25T10:22:47.216Z,5.55
2017-12-25T10:25:14.804Z,4.62
2017-12-25T10:27:42.391Z,4.40
2017-12-25T10:30:09.977Z,4.97
2017-12-25T10:32:38.332Z,5.55
2017-12-25T10:35:05.968Z,5.10
2017-12-25T10:37:33.555Z,4.32
2017-12-25T10:40:02.760Z,4.80
2017-12-25T10:42:30.380Z,4.15
2017-12-25T10:44:57.981Z,4.82
2017-12-25T10:47:26.345Z,4.35
2017-12-25T10:49:53.944Z,4.80
2017-12-25T10:52:21.532Z,4.50
2017-12-25T10:54:49.144Z,4.62
2017-12-25T10:57:16.731Z,4.40
2017-12-25T10:59:44.320Z,4.90
2017-12-25T11:02:28.681Z,5.37
2017-12-25T11:04:56.273Z,5.25
2017-12-25T11:07:28.836Z,5.30
2017-12-25T11:09:59.551Z,5.43
2017-12-25T11:15:12.653Z,4.80
2017-12-25T11:17:40.304Z,6.50
2017-12-25T11:20:09.962Z,6.10
2017-12-25T11:22:37.612Z,5.70
2017-12-25T11:25:05.287Z,5.90
2017-12-25T11:27:33.827Z,5.72
2017-12-25T11:30:02.746Z,4.60
2017-12-25T11:32:30.388Z,5.22
2017-12-25T11:34:58.017Z,5.30
2017-12-25T11:37:25.617Z,5.80
2017-12-25T11:39:56.705Z,6.18
2017-12-25T11:42:25.065Z,6.28
2017-12-25T11:44:52.657Z,5.72
2017-12-25T11:47:24.076Z,6.28
2017-12-25T11:49:51.673Z,5.28
2017-12-25T11:52:19.274Z,5.53
2017-12-25T11:54:46.883Z,5.00
2017-12-25T11:57:14.528Z,6.37
2017-12-25T11:59:43.044Z,6.20
2017-12-25T12:02:10.786Z,5.50
2017-12-25T12:04:38.388Z,5.30
2017-12-25T12:07:05.985Z,5.40
2017-12-25T12:09:33.712Z,5.18
2017-12-25T12:12:01.332Z,4.65
2017-12-25T12:14:28.993Z,4.85
2017-12-25T12:16:56.592Z,4.57
2017-12-25T12:19:27.749Z,5.07
2017-12-25T12:21:55.352Z,5.47
2017-12-25T12:24:22.968Z,4.97
2017-12-25T12:26:50.573Z,5.47
2017-12-25T12:29:18.184Z,4.87
2017-12-25T12:31:45.785Z,4.80
2017-12-25T12:34:14.389Z,6.80
2017-12-25T12:36:42.062Z,6.20
2017-12-25T12:39:09.713Z,7.10
2017-12-25T12:41:37.313Z,6.78
2017-12-25T12:44:04.907Z,6.70
2017-12-25T12:46:33.273Z,7.20
2017-12-25T12:49:00.872Z,7.05
2017-12-25T12:51:28.470Z,6.50
2017-12-25T12:53:56.060Z,6.50
2017-12-25T12:56:23.696Z,6.70
2017-12-25T12:58:51.296Z,6.90
2017-12-25T13:01:18.892Z,6.30
2017-12-25T13:03:56.528Z,6.82
2017-12-25T13:06:24.136Z,6.53
2017-12-25T13:08:51.736Z,7.93
2017-12-25T13:11:19.340Z,7.62
2017-12-25T13:13:46.948Z,6.82
2017-12-25T13:16:15.714Z,7.35
2017-12-25T13:19:01.372Z,6.97
2017-12-25T13:21:31.384Z,7.45
2017-12-25T13:23:59.528Z,6.35
2017-12-25T13:26:27.132Z,6.60
2017-12-25T13:28:54.729Z,6.45
2017-12-25T13:31:22.317Z,7.05
2017-12-25T13:33:49.924Z,7.28
2017-12-25T13:36:17.844Z,7.32
2017-12-25T13:38:46.411Z,8.02
2017-12-25T13:41:14.976Z,7.50
2017-12-25T13:43:42.620Z,7.53
2017-12-25T13:46:10.216Z,8.07
2017-12-25T13:48:38.889Z,7.75
2017-12-25T13:51:06.857Z,8.65
2017-12-25T13:53:34.660Z,9.18
2017-12-25T13:56:04.407Z,8.40
2017-12-25T13:58:32.092Z,8.95
2017-12-25T14:01:00.196Z,10.68
2017-12-25T14:03:28.105Z,9.90
2017-12-25T14:05:55.769Z,9.88
2017-12-25T14:08:23.777Z,10.15
2017-12-25T14:10:51.400Z,11.07
2017-12-25T14:13:19.228Z,10.57
2017-12-25T14:15:47.429Z,11.10
2017-12-25T14:18:15.368Z,10.63
2017-12-25T14:20:42.959Z,11.57
2017-12-25T14:23:11.362Z,10.65
2017-12-25T14:25:39.257Z,12.05
2017-12-25T14:28:06.880Z,12.35
2017-12-25T14:30:34.520Z,12.90
2017-12-25T14:33:02.304Z,12.45
2017-12-25T14:35:30.885Z,12.50
2017-12-25T14:38:00.932Z,11.40
2017-12-25T14:40:28.567Z,10.80
2017-12-25T14:42:56.548Z,10.95
2017-12-25T14:45:24.192Z,9.40
2017-12-25T14:47:57.281Z,9.27
2017-12-25T14:50:24.885Z,9.15
2017-12-25T14:52:54.609Z,9.85
2017-12-25T14:55:22.896Z,10.55
2017-12-25T14:57:51.712Z,10.25
2017-12-25T15:00:19.341Z,11.15
2017-12-25T15:02:46.946Z,11.65
2017-12-25T15:05:15.368Z,9.88
2017-12-25T15:07:43.040Z,9.40
2017-12-25T15:10:12.639Z,8.70
2017-12-25T15:12:40.248Z,8.18
2017-12-25T15:15:07.845Z,8.18
2017-12-25T15:17:35.479Z,9.05
2017-12-25T15:20:07.023Z,9.70
2017-12-25T15:22:37.348Z,9.80
2017-12-25T15:25:05.192Z,7.47
2017-12-25T15:27:32.980Z,7.90
2017-12-25T15:30:01.585Z,9.25
2017-12-25T15:32:32.165Z,8.23
2017-12-25T15:34:59.921Z,8.10
2017-12-25T15:37:28.653Z,9.23
2017-12-25T15:39:57.060Z,8.05
2017-12-25T15:42:26.183Z,8.27
2017-12-25T15:44:54.024Z,8.57
2017-12-25T15:47:22.664Z,8.23
2017-12-25T15:49:51.428Z,9.25
2017-12-25T15:52:19.891Z,8.25
2017-12-25T15:54:56.092Z,9.38
2017-12-25T15:57:25.585Z,9.88
2017-12-25T15:59:55.908Z,9.18
2017-12-25T16:02:24.404Z,9.65
2017-12-25T16:04:54.670Z,8.70
2017-12-25T16:07:30.506Z,9.40
2017-12-25T16:09:58.743Z,8.88
2017-12-25T16:12:27.021Z,8.37
2017-12-25T16:14:55.250Z,9.50
2017-12-25T16:17:23.478Z,9.25
2017-12-25T16:19:51.801Z,10.15
2017-12-25T16:22:20.026Z,9.15
2017-12-25T16:24:48.240Z,9.55
2017-12-25T16:27:20.342Z,9.05
2017-12-25T16:29:48.580Z,9.73
2017-12-25T16:32:16.868Z,8.52
2017-12-25T16:34:45.141Z,8.50
2017-12-25T16:37:13.405Z,7.50
2017-12-25T16:39:41.591Z,7.10
2017-12-25T16:42:09.933Z,7.47
2017-12-25T16:44:38.177Z,7.45
2017-12-25T16:47:06.513Z,8.00
2017-12-25T16:49:34.770Z,7.95
2017-12-25T16:52:03.005Z,7.65
2017-12-25T16:54:31.222Z,8.63
2017-12-25T16:56:59.476Z,8.73
2017-12-25T16:59:27.352Z,7.82
2017-12-25T17:01:55.261Z,8.77
2017-12-25T17:04:22.986Z,9.43
2017-12-25T17:06:51.205Z,9.75
2017-12-25T17:09:19.490Z,9.38
2017-12-25T17:11:47.697Z,9.20
2017-12-25T17:14:16.722Z,10.18
2017-12-25T17:16:45.044Z,10.65
2017-12-25T17:19:23.745Z,10.18
2017-12-25T17:21:54.246Z,9.85
2017-12-25T17:24:22.574Z,10.80
2017-12-25T17:32:45.477Z,11.05
2017-12-25T17:35:15.293Z,9.43
2017-12-25T17:37:42.935Z,10.98
2017-12-25T17:40:10.599Z,10.55
2017-12-25T17:42:38.256Z,10.20
2017-12-25T17:45:05.871Z,11.20
2017-12-25T17:47:33.492Z,11.73
2017-12-25T17:50:01.093Z,10.90
2017-12-25T17:52:28.692Z,11.63
2017-12-25T17:54:56.288Z,11.60
2017-12-25T17:57:23.889Z,12.27
2017-12-25T17:59:51.680Z,12.52
2017-12-25T18:02:19.367Z,12.07
2017-12-25T18:04:46.989Z,11.45
2017-12-25T18:07:15.372Z,11.27
2017-12-25T18:09:43.141Z,11.38
2017-12-25T18:12:10.765Z,11.80
2017-12-25T18:14:38.428Z,12.60
2017-12-25T18:17:06.031Z,11.95
2017-12-25T18:19:33.631Z,11.30
2017-12-25T18:22:01.250Z,11.55
2017-12-25T18:24:28.857Z,12.23
2017-12-25T18:26:56.547Z,12.60
2017-12-25T18:29:24.996Z,12.15
2017-12-25T18:31:52.653Z,12.32
2017-12-25T18:34:20.344Z,13.38
2017-12-25T18:36:48.098Z,13.02
2017-12-25T18:39:15.804Z,12.45
2017-12-25T18:41:43.491Z,12.85
2017-12-25T18:44:12.959Z,12.88
2017-12-25T18:46:41.421Z,12.60
2017-12-25T18:49:09.085Z,13.62
2017-12-25T18:51:37.536Z,13.48
2017-12-25T18:54:05.282Z,13.40
2017-12-25T18:56:33.009Z,13.80
2017-12-25T18:59:00.730Z,12.70
2017-12-25T19:01:28.419Z,13.27
2017-12-25T19:03:56.987Z,14.48
2017-12-25T19:06:24.730Z,14.07
2017-12-25T19:08:52.439Z,15.32
2017-12-25T19:11:21.019Z,14.60
2017-12-25T19:13:49.490Z,14.82
2017-12-25T19:16:17.166Z,14.43
2017-12-25T19:18:45.626Z,15.10
2017-12-25T19:21:13.319Z,16.30
2017-12-25T19:23:41.708Z,14.85
2017-12-25T19:26:09.474Z,15.35
2017-12-25T19:28:37.134Z,15.02
2017-12-25T19:31:04.883Z,16.55
2017-12-25T19:33:33.321Z,15.63
2017-12-25T19:36:01.192Z,14.35
2017-12-25T19:38:28.916Z,15.40
2017-12-25T19:40:56.665Z,16.15
2017-12-25T19:43:25.189Z,15.73
2017-12-25T19:45:52.865Z,14.87
2017-12-25T19:48:20.529Z,16.55
2017-12-25T19:50:48.720Z,15.73
2017-12-25T19:53:16.465Z,15.00
2017-12-25T19:55:44.101Z,20.55
2017-12-25T19:58:11.764Z,15.35
2017-12-25T20:00:39.468Z,18.52
2017-12-25T20:03:07.190Z,17.17
2017-12-25T20:05:35.015Z,17.17
2017-12-25T20:08:03.415Z,16.77
2017-12-25T20:10:32.304Z,15.25
2017-12-25T20:13:00.011Z,15.38
2017-12-25T20:15:28.731Z,17.83
2017-12-25T20:17:57.315Z,16.02
2017-12-25T20:20:25.781Z,17.23
2017-12-25T20:22:53.429Z,18.37
2017-12-25T20:25:21.250Z,16.73
2017-12-25T20:27:48.965Z,16.83
2017-12-25T20:30:17.517Z,17.15
2017-12-25T20:32:45.192Z,17.73
2017-12-25T20:35:12.918Z,16.60
2017-12-25T20:37:40.603Z,16.48
2017-12-25T20:40:09.190Z,17.55
2017-12-25T20:42:36.872Z,17.40
2017-12-25T20:45:04.956Z,15.35
2017-12-25T20:47:32.623Z,17.62
2017-12-25T20:50:00.302Z,16.42
2017-12-25T20:52:27.957Z,15.75
2017-12-25T20:54:55.655Z,16.98
2017-12-25T20:57:23.394Z,16.17
2017-12-25T20:59:51.849Z,16.42
2017-12-25T21:02:19.477Z,14.60
2017-12-25T21:04:47.101Z,15.10
2017-12-25T21:07:15.560Z,15.70
2017-12-25T21:09:43.203Z,16.52
2017-12-25T21:12:10.984Z,25.33
2017-12-25T21:14:38.685Z,22.37
2017-12-25T21:17:07.255Z,19.45
2017-12-25T21:19:35.003Z,15.50
2017-12-25T21:22:03.469Z,14.65
2017-12-25T21:24:31.134Z,13.98
2017-12-25T21:26:58.830Z,15.13
2017-12-25T21:29:26.489Z,14.75
2017-12-25T21:31:54.238Z,14.50
2017-12-25T21:34:23.848Z,13.32
2017-12-25T21:36:52.280Z,15.20
2017-12-25T21:39:19.936Z,14.02
2017-12-25T21:41:47.656Z,14.55
2017-12-25T21:44:16.057Z,13.80
2017-12-25T21:46:43.727Z,14.60
2017-12-25T21:49:11.426Z,13.45
2017-12-25T21:51:39.065Z,13.30
2017-12-25T21:54:06.741Z,13.07
2017-12-25T21:56:34.430Z,13.05
2017-12-25T21:59:02.098Z,14.60
2017-12-25T22:01:31.967Z,14.10
2017-12-25T22:04:00.058Z,14.98
2017-12-25T22:06:28.875Z,14.05
2017-12-25T22:08:56.894Z,15.05
2017-12-25T22:11:25.605Z,15.07
2017-12-25T22:13:53.662Z,12.68
2017-12-25T22:16:21.674Z,13.55
2017-12-25T22:18:49.513Z,15.30
2017-12-25T22:21:17.634Z,16.30
2017-12-25T22:23:45.751Z,16.65
2017-12-25T22:26:13.855Z,16.40
2017-12-25T22:28:41.908Z,14.98
2017-12-25T22:31:10.202Z,14.90
2017-12-25T22:33:38.086Z,14.80
2017-12-25T22:36:05.971Z,14.60
2017-12-25T22:38:33.874Z,13.98
2017-12-25T22:41:01.684Z,14.73
2017-12-25T22:43:29.542Z,15.20
2017-12-25T22:45:57.605Z,14.38
2017-12-25T22:48:26.239Z,13.23
2017-12-25T22:50:54.195Z,14.40
2017-12-25T22:53:21.993Z,14.15
2017-12-25T22:55:49.845Z,14.10
2017-12-25T22:58:17.635Z,14.55
2017-12-25T23:00:45.461Z,13.73
2017-12-25T23:03:14.180Z,14.53
2017-12-25T23:05:42.909Z,14.50
2017-12-25T23:08:10.888Z,15.07
2017-12-25T23:10:39.004Z,15.18
2017-12-25T23:13:06.990Z,15.48
2017-12-25T23:15:35.064Z,15.85
2017-12-25T23:18:03.208Z,14.50
2017-12-25T23:20:32.125Z,15.75
2017-12-25T23:23:00.094Z,15.07
2017-12-25T23:25:28.805Z,14.40
2017-12-25T23:27:56.851Z,13.93
2017-12-25T23:30:24.887Z,14.43
2017-12-25T23:32:52.841Z,15.77
2017-12-25T23:35:21.478Z,15.13
2017-12-25T23:37:49.596Z,12.95
2017-12-25T23:40:17.605Z,15.10
2017-12-25T23:42:45.380Z,15.68
2017-12-25T23:45:13.148Z,15.15
2017-12-25T23:47:41.002Z,14.80
2017-12-25T23:50:08.957Z,14.52
2017-12-25T23:52:37.052Z,15.45
2017-12-25T23:55:05.002Z,14.23
2017-12-25T23:57:33.818Z,14.48
